createdAt,value
2022-08-27T00:00:09.249Z,0.109
2022-08-27T00:01:08.708Z,0
2022-08-27T00:02:08.634Z,0.109
2022-08-27T00:03:08.007Z,0
2022-08-27T00:04:08.167Z,0
2022-08-27T00:05:07.715Z,0.109
2022-08-27T00:06:07.867Z,0
2022-08-27T00:07:08.276Z,0.219
2022-08-27T00:09:07.633Z,0
2022-08-27T00:10:07.781Z,0
2022-08-27T00:11:08.022Z,0
2022-08-27T00:12:07.945Z,0
2022-08-27T00:13:08.044Z,0
2022-08-27T00:14:08.073Z,0
2022-08-27T00:15:07.681Z,0
2022-08-27T00:16:07.747Z,0
2022-08-27T00:17:07.826Z,0
2022-08-27T00:18:07.981Z,0.100
2022-08-27T00:19:07.671Z,0.119
2022-08-27T00:20:07.723Z,0
2022-08-27T00:21:07.953Z,0
2022-08-27T00:22:08.075Z,0
2022-08-27T00:23:07.885Z,0.109
2022-08-27T00:24:08.161Z,0
2022-08-27T00:25:07.620Z,0
2022-08-27T00:26:07.734Z,0.109
2022-08-27T00:27:08.101Z,0
2022-08-27T00:28:07.933Z,0
2022-08-27T00:29:07.471Z,0.109
2022-08-27T00:30:07.863Z,0
2022-08-27T00:31:08.225Z,0
2022-08-27T00:32:07.824Z,0
2022-08-27T00:33:07.748Z,0.109
2022-08-27T00:34:07.820Z,0
2022-08-27T00:35:07.756Z,0
2022-08-27T00:36:07.860Z,0
2022-08-27T00:37:07.560Z,0
2022-08-27T00:38:07.718Z,0
2022-08-27T00:39:07.949Z,0
2022-08-27T00:40:08.091Z,0
2022-08-27T00:41:07.646Z,0
2022-08-27T00:42:07.403Z,0
2022-08-27T00:43:07.499Z,0
2022-08-27T00:44:07.583Z,0
2022-08-27T00:45:07.853Z,0
2022-08-27T00:46:07.911Z,0.109
2022-08-27T00:47:08.182Z,0
2022-08-27T00:48:07.492Z,0
2022-08-27T00:49:07.968Z,0
2022-08-27T00:50:08.478Z,0
2022-08-27T00:51:07.699Z,0
2022-08-27T00:52:07.912Z,0
2022-08-27T00:53:08.168Z,0
2022-08-27T00:54:08.148Z,0
2022-08-27T00:55:08.152Z,0
2022-08-27T00:56:07.625Z,0
2022-08-27T00:57:07.563Z,0
2022-08-27T00:58:07.571Z,0
2022-08-27T00:59:07.978Z,0
2022-08-27T01:00:08.441Z,0
2022-08-27T01:01:07.892Z,0
2022-08-27T01:02:08.312Z,0
2022-08-27T01:03:07.673Z,0
2022-08-27T01:04:07.911Z,0
2022-08-27T01:05:08.114Z,0
2022-08-27T01:06:07.592Z,0
2022-08-27T01:07:07.456Z,0
2022-08-27T01:08:07.341Z,0
2022-08-27T01:09:07.841Z,0
2022-08-27T01:10:08.035Z,0
2022-08-27T01:11:08.312Z,0
2022-08-27T01:12:07.339Z,0
2022-08-27T01:13:07.389Z,0
2022-08-27T01:14:08.150Z,0
2022-08-27T01:15:08.224Z,0.109
2022-08-27T01:16:08.054Z,0
2022-08-27T01:17:07.764Z,0
2022-08-27T01:18:07.893Z,0
2022-08-27T01:19:07.649Z,0
2022-08-27T01:20:07.880Z,0
2022-08-27T01:21:07.596Z,0
2022-08-27T01:22:07.526Z,0.109
2022-08-27T01:23:07.651Z,0
2022-08-27T01:24:07.868Z,0
2022-08-27T01:25:08.236Z,0
2022-08-27T01:26:07.764Z,0
2022-08-27T01:27:08.138Z,0
2022-08-27T01:28:07.900Z,0
2022-08-27T01:29:07.208Z,0
2022-08-27T01:30:08.547Z,0
2022-08-27T01:31:07.787Z,0
2022-08-27T01:32:08.058Z,0
2022-08-27T01:33:07.960Z,0
2022-08-27T01:34:07.318Z,0
2022-08-27T01:35:08.269Z,0
2022-08-27T01:36:07.491Z,0
2022-08-27T01:37:07.366Z,0
2022-08-27T01:38:09.365Z,0
2022-08-27T01:39:08.013Z,0
2022-08-27T01:40:07.631Z,0
2022-08-27T01:41:07.853Z,0
2022-08-27T01:42:07.898Z,0
2022-08-27T01:43:07.734Z,0
2022-08-27T01:44:07.665Z,0
2022-08-27T01:45:08.187Z,0
2022-08-27T01:46:07.545Z,0
2022-08-27T01:47:07.627Z,0
2022-08-27T01:48:07.603Z,0
2022-08-27T01:49:07.664Z,0.109
2022-08-27T01:50:07.780Z,0
2022-08-27T01:51:08.246Z,0
2022-08-27T01:52:07.399Z,0
2022-08-27T01:53:08.140Z,0
2022-08-27T01:54:07.650Z,0
2022-08-27T01:55:07.891Z,0
2022-08-27T01:56:07.875Z,0
2022-08-27T01:57:08.112Z,0
2022-08-27T01:58:07.988Z,0
2022-08-27T01:59:07.842Z,0
2022-08-27T02:00:08.477Z,0
2022-08-27T02:01:07.776Z,0
2022-08-27T02:02:08.332Z,0
2022-08-27T02:03:07.558Z,0.109
2022-08-27T02:04:07.635Z,0.109
2022-08-27T02:05:07.961Z,0.109
2022-08-27T02:06:08.022Z,0
2022-08-27T02:07:08.127Z,0.109
2022-08-27T02:08:08.281Z,0
2022-08-27T02:09:07.602Z,0
2022-08-27T02:10:07.682Z,0
2022-08-27T02:11:07.694Z,0
2022-08-27T02:12:08.020Z,0
2022-08-27T02:13:07.856Z,0
2022-08-27T02:14:07.893Z,0
2022-08-27T02:15:07.803Z,0
2022-08-27T02:16:07.976Z,0
2022-08-27T02:17:08.151Z,0
2022-08-27T02:18:07.737Z,0.109
2022-08-27T02:19:09.794Z,0
2022-08-27T02:20:07.811Z,0
2022-08-27T02:21:07.855Z,0
2022-08-27T02:22:07.952Z,0
2022-08-27T02:23:08.104Z,0.109
2022-08-27T02:24:07.645Z,0
2022-08-27T02:25:10.297Z,0.109
2022-08-27T02:26:07.926Z,0.109
2022-08-27T02:27:08.094Z,0.109
2022-08-27T02:28:08.452Z,0
2022-08-27T02:29:07.964Z,0.109
2022-08-27T02:30:08.177Z,0
2022-08-27T02:31:07.475Z,0
2022-08-27T02:32:07.679Z,0
2022-08-27T02:33:08.110Z,0
2022-08-27T02:34:08.001Z,0
2022-08-27T02:35:08.628Z,0
2022-08-27T02:36:08.118Z,0.109
2022-08-27T02:37:07.381Z,0
2022-08-27T02:38:08.316Z,0
2022-08-27T02:39:08.044Z,0.109
2022-08-27T02:40:08.156Z,0.109
2022-08-27T02:41:07.379Z,0
2022-08-27T02:42:07.691Z,0.109
2022-08-27T02:43:08.231Z,0
2022-08-27T02:44:10.401Z,0
2022-08-27T02:45:07.461Z,0
2022-08-27T02:46:07.591Z,0.119
2022-08-27T02:47:07.756Z,0
2022-08-27T02:48:07.967Z,0
2022-08-27T02:49:07.712Z,0.119
2022-08-27T02:50:08.304Z,0.200
2022-08-27T02:51:07.706Z,0
2022-08-27T02:52:07.778Z,0
2022-08-27T02:53:08.006Z,0.119
2022-08-27T02:54:08.538Z,0
2022-08-27T02:55:08.209Z,0
2022-08-27T02:56:08.096Z,0
2022-08-27T02:57:08.151Z,0
2022-08-27T02:58:08.480Z,0
2022-08-27T02:59:07.773Z,0
2022-08-27T03:00:08.515Z,0
2022-08-27T03:01:11.384Z,0.109
2022-08-27T03:02:08.264Z,0
2022-08-27T03:03:07.963Z,0
2022-08-27T03:04:08.329Z,0
2022-08-27T03:05:07.703Z,0.109
2022-08-27T03:06:07.567Z,0
2022-08-27T03:07:07.829Z,0
2022-08-27T03:08:07.721Z,0.109
2022-08-27T03:09:08.223Z,0
2022-08-27T03:10:08.465Z,0
2022-08-27T03:11:07.897Z,0
2022-08-27T03:12:08.129Z,0.219
2022-08-27T03:13:08.144Z,0
2022-08-27T03:14:08.246Z,0.109
2022-08-27T03:15:07.469Z,0.109
2022-08-27T03:16:07.526Z,0
2022-08-27T03:17:07.996Z,0.219
2022-08-27T03:18:07.532Z,0.109
2022-08-27T03:19:08.007Z,0
2022-08-27T03:20:07.996Z,0.109
2022-08-27T03:21:08.008Z,0
2022-08-27T03:22:07.816Z,0
2022-08-27T03:23:07.805Z,0
2022-08-27T03:24:11.524Z,0.109
2022-08-27T03:25:07.736Z,0
2022-08-27T03:26:07.808Z,0
2022-08-27T03:27:07.599Z,0.109
2022-08-27T03:28:22.498Z,0
2022-08-27T03:29:07.774Z,0
2022-08-27T03:30:08.635Z,0
2022-08-27T03:31:08.577Z,0
2022-08-27T03:32:07.654Z,0
2022-08-27T03:33:07.812Z,0
2022-08-27T03:34:07.835Z,0
2022-08-27T03:35:07.888Z,0
2022-08-27T03:36:08.107Z,0.109
2022-08-27T03:37:07.424Z,0
2022-08-27T03:38:07.794Z,0
2022-08-27T03:39:08.494Z,0.109
2022-08-27T03:40:08.105Z,0.219
2022-08-27T03:41:07.582Z,0.109
2022-08-27T03:42:07.677Z,0.109
2022-08-27T03:43:07.628Z,0.109
2022-08-27T03:44:07.687Z,0
2022-08-27T03:45:08.600Z,0
2022-08-27T03:46:08.111Z,0.109
2022-08-27T03:47:08.225Z,0.109
2022-08-27T03:48:07.620Z,0
2022-08-27T03:49:07.867Z,0
2022-08-27T03:50:12.964Z,0
2022-08-27T03:51:08.199Z,0
2022-08-27T03:52:07.389Z,0
2022-08-27T03:53:07.565Z,0
2022-08-27T03:54:07.803Z,0
2022-08-27T03:55:07.848Z,0
2022-08-27T03:56:08.078Z,0
2022-08-27T03:57:07.458Z,0
2022-08-27T03:58:07.771Z,0
2022-08-27T03:59:07.562Z,0
2022-08-27T04:00:08.281Z,0
2022-08-27T04:01:08.019Z,0
2022-08-27T04:02:07.628Z,13600
2022-08-27T04:03:08.388Z,0
2022-08-27T04:04:07.776Z,13600
2022-08-27T04:05:07.982Z,0
2022-08-27T04:06:08.051Z,13600
2022-08-27T04:07:08.338Z,0
2022-08-27T04:08:07.676Z,0
2022-08-27T04:09:08.391Z,13600
2022-08-27T04:10:07.758Z,0
2022-08-27T04:11:08.254Z,13600
2022-08-27T04:12:07.433Z,13600
2022-08-27T04:13:07.730Z,13600
2022-08-27T04:14:26.107Z,0
2022-08-27T04:15:08.143Z,0
2022-08-27T04:16:07.626Z,0
2022-08-27T04:17:07.862Z,0
2022-08-27T04:18:08.184Z,0.050
2022-08-27T04:19:07.908Z,0.680
2022-08-27T04:20:33.883Z,0.680
2022-08-27T04:21:07.878Z,1.240
2022-08-27T04:22:08.514Z,0.449
2022-08-27T04:23:08.036Z,1.200
2022-08-27T04:24:08.172Z,2.170
2022-08-27T04:25:11.534Z,2.930
2022-08-27T04:26:08.028Z,2.839
2022-08-27T04:27:08.417Z,4.150
2022-08-27T04:28:08.051Z,4.980
2022-08-27T04:29:07.681Z,5.670
2022-08-27T04:30:08.158Z,7.260
2022-08-27T04:31:12.921Z,7.570
2022-08-27T04:32:08.000Z,9.569
2022-08-27T04:33:08.144Z,10.34
2022-08-27T04:34:07.823Z,10.36
2022-08-27T04:35:08.160Z,11.98
2022-08-27T04:36:07.677Z,13.27
2022-08-27T04:37:08.152Z,13.5
2022-08-27T04:38:07.815Z,15.55
2022-08-27T04:39:08.316Z,16.19
2022-08-27T04:40:08.035Z,17.87
2022-08-27T04:41:07.778Z,19.04
2022-08-27T04:42:08.223Z,20.70
2022-08-27T04:43:07.855Z,21.89
2022-08-27T04:44:08.055Z,24.17
2022-08-27T04:45:08.356Z,24.43
2022-08-27T04:46:07.969Z,25.36
2022-08-27T04:47:07.969Z,26.61
2022-08-27T04:48:08.056Z,28.39
2022-08-27T04:49:10.208Z,30.92
2022-08-27T04:50:07.999Z,33.68
2022-08-27T04:51:08.165Z,36.31
2022-08-27T04:52:07.733Z,40.09
2022-08-27T04:53:07.999Z,44.20
2022-08-27T04:54:08.203Z,47.90
2022-08-27T04:55:07.644Z,51.5
2022-08-27T04:56:08.063Z,54.40
2022-08-27T04:57:08.158Z,59.09
2022-08-27T04:58:07.689Z,64.40
2022-08-27T04:59:08.065Z,69.09
2022-08-27T05:00:08.832Z,71.91
2022-08-27T05:01:07.798Z,73.15
2022-08-27T05:02:08.062Z,75
2022-08-27T05:03:08.298Z,77.30
2022-08-27T05:04:07.794Z,79.01
2022-08-27T05:05:07.912Z,80.22
2022-08-27T05:06:07.578Z,80.33
2022-08-27T05:07:07.720Z,82.12
2022-08-27T05:08:08.166Z,84.09
2022-08-27T05:09:07.857Z,90
2022-08-27T05:10:08.495Z,94.80
2022-08-27T05:11:08.277Z,99.59
2022-08-27T05:12:07.833Z,107.4
2022-08-27T05:13:07.958Z,117.5
2022-08-27T05:14:08.249Z,123.1
2022-08-27T05:15:07.804Z,121.5
2022-08-27T05:16:08.455Z,120.1
2022-08-27T05:17:08.043Z,120.0
2022-08-27T05:18:07.702Z,118.0
2022-08-27T05:19:08.136Z,116.7
2022-08-27T05:20:08.286Z,121.0
2022-08-27T05:21:07.875Z,127.3
2022-08-27T05:22:08.304Z,130.6
2022-08-27T05:23:07.918Z,131.7
2022-08-27T05:24:08.400Z,136.6
2022-08-27T05:25:08.056Z,144.6
2022-08-27T05:26:07.738Z,151.3
2022-08-27T05:27:08.053Z,153.0
2022-08-27T05:28:08.059Z,151.2
2022-08-27T05:29:07.666Z,152.6
2022-08-27T05:30:08.421Z,159.3
2022-08-27T05:31:07.995Z,172
2022-08-27T05:32:08.585Z,187
2022-08-27T05:33:08.351Z,195.8
2022-08-27T05:34:10.129Z,199
2022-08-27T05:35:07.932Z,204.6
2022-08-27T05:36:08.239Z,213
2022-08-27T05:37:08.011Z,227
2022-08-27T05:38:08.531Z,241
2022-08-27T05:39:08.201Z,254
2022-08-27T05:40:07.873Z,262.2
2022-08-27T05:41:08.401Z,264.3
2022-08-27T05:42:07.809Z,262.5
2022-08-27T05:43:08.181Z,266.5
2022-08-27T05:44:36.798Z,276
2022-08-27T05:45:08.601Z,288
2022-08-27T05:46:08.645Z,306
2022-08-27T05:47:08.476Z,332
2022-08-27T05:48:08.077Z,360
2022-08-27T05:49:07.589Z,396
2022-08-27T05:50:08.054Z,420
2022-08-27T05:51:07.730Z,443
2022-08-27T05:52:07.918Z,473
2022-08-27T05:53:08.361Z,499
2022-08-27T05:54:08.895Z,524
2022-08-27T05:55:07.785Z,547
2022-08-27T05:56:08.078Z,572
2022-08-27T05:57:08.300Z,597
2022-08-27T05:58:08.194Z,610
2022-08-27T05:59:07.615Z,614.0
2022-08-27T06:00:09.316Z,607.0
2022-08-27T06:01:10.345Z,600
2022-08-27T06:02:08.211Z,592.5
2022-08-27T06:03:07.571Z,581
2022-08-27T06:04:08.488Z,554
2022-08-27T06:05:08.309Z,531
2022-08-27T06:06:08.015Z,528
2022-08-27T06:07:08.689Z,538
2022-08-27T06:08:08.652Z,553
2022-08-27T06:09:13.295Z,575
2022-08-27T06:10:07.926Z,597
2022-08-27T06:11:13.275Z,617
2022-08-27T06:12:07.901Z,644
2022-08-27T06:13:08.272Z,655.1
2022-08-27T06:14:08.238Z,645
2022-08-27T06:15:08.088Z,628
2022-08-27T06:16:08.072Z,613
2022-08-27T06:17:07.815Z,594
2022-08-27T06:18:07.967Z,583.2
2022-08-27T06:19:15.728Z,583.4
2022-08-27T06:20:08.067Z,584.4
2022-08-27T06:21:08.294Z,581.9
2022-08-27T06:22:10.097Z,590
2022-08-27T06:23:07.797Z,615
2022-08-27T06:24:08.098Z,637
2022-08-27T06:25:08.528Z,646.2
2022-08-27T06:26:07.915Z,648.6
2022-08-27T06:27:08.080Z,650.5
2022-08-27T06:28:08.510Z,655
2022-08-27T06:29:08.470Z,662.2
2022-08-27T06:30:08.441Z,660.9
2022-08-27T06:31:08.000Z,649
2022-08-27T06:32:08.508Z,639.2
2022-08-27T06:33:07.911Z,633.7
2022-08-27T06:34:08.129Z,638
2022-08-27T06:35:08.706Z,650
2022-08-27T06:36:08.580Z,690
2022-08-27T06:37:07.935Z,730
2022-08-27T06:38:07.982Z,762
2022-08-27T06:39:07.523Z,782
2022-08-27T06:40:07.877Z,784
2022-08-27T06:41:08.350Z,788.5
2022-08-27T06:42:08.002Z,800
2022-08-27T06:43:08.730Z,840
2022-08-27T06:44:08.242Z,877
2022-08-27T06:45:08.115Z,890.2
2022-08-27T06:46:07.568Z,879
2022-08-27T06:47:08.178Z,850
2022-08-27T06:48:07.875Z,800
2022-08-27T06:49:08.086Z,768
2022-08-27T06:50:08.119Z,760
2022-08-27T06:51:08.128Z,780
2022-08-27T06:52:08.315Z,810
2022-08-27T06:53:07.763Z,827
2022-08-27T06:54:08.005Z,845
2022-08-27T06:55:08.150Z,870
2022-08-27T06:56:08.356Z,899
2022-08-27T06:57:07.792Z,920
2022-08-27T06:58:08.068Z,953
2022-08-27T06:59:11.819Z,963.0
2022-08-27T07:00:08.300Z,982
2022-08-27T07:01:07.866Z,1002
2022-08-27T07:02:08.216Z,1019.
2022-08-27T07:03:07.942Z,1025.
2022-08-27T07:04:08.455Z,1020.
2022-08-27T07:05:08.227Z,1007
2022-08-27T07:06:07.775Z,1001.
2022-08-27T07:07:08.151Z,1010
2022-08-27T07:08:08.490Z,1040
2022-08-27T07:09:08.206Z,1080
2022-08-27T07:10:08.736Z,1130
2022-08-27T07:11:08.429Z,1180
2022-08-27T07:12:08.008Z,1220
2022-08-27T07:13:08.313Z,1280
2022-08-27T07:14:07.776Z,1330
2022-08-27T07:15:08.206Z,1360
2022-08-27T07:16:08.023Z,1380
2022-08-27T07:17:10.779Z,1410.
2022-08-27T07:18:08.278Z,1401
2022-08-27T07:19:08.657Z,1394.
2022-08-27T07:20:08.071Z,1399.
2022-08-27T07:21:08.205Z,1370
2022-08-27T07:22:07.945Z,1355.
2022-08-27T07:23:10.999Z,1361.
2022-08-27T07:24:08.209Z,1375
2022-08-27T07:25:08.176Z,1360
2022-08-27T07:26:08.361Z,1320
2022-08-27T07:27:08.037Z,1291
2022-08-27T07:28:08.198Z,1281
2022-08-27T07:29:07.793Z,1296
2022-08-27T07:30:08.376Z,1320
2022-08-27T07:32:08.563Z,1450
2022-08-27T07:33:08.202Z,1530
2022-08-27T07:34:08.381Z,1560.
2022-08-27T07:35:07.713Z,1540
2022-08-27T07:36:07.931Z,1480
2022-08-27T07:37:07.902Z,1410
2022-08-27T07:38:08.121Z,1350
2022-08-27T07:39:08.096Z,1314
2022-08-27T07:40:08.527Z,1323
2022-08-27T07:41:08.424Z,1341
2022-08-27T07:42:07.783Z,1361
2022-08-27T07:43:08.105Z,1383
2022-08-27T07:44:08.475Z,1402
2022-08-27T07:45:08.224Z,1407.
2022-08-27T07:46:08.205Z,1403
2022-08-27T07:47:08.658Z,1405
2022-08-27T07:48:08.201Z,1420
2022-08-27T07:49:08.489Z,1449.
2022-08-27T07:50:08.307Z,1457
2022-08-27T07:51:07.767Z,1472.
2022-08-27T07:52:08.209Z,1474
2022-08-27T07:53:08.921Z,1484.
2022-08-27T07:54:07.758Z,1475
2022-08-27T07:55:08.486Z,1455
2022-08-27T07:56:07.905Z,1420
2022-08-27T07:57:08.203Z,1384
2022-08-27T07:58:11.531Z,1385
2022-08-27T07:59:08.338Z,1411
2022-08-27T08:00:09.223Z,1424
2022-08-27T08:01:08.574Z,1425.
2022-08-27T08:02:08.099Z,1433
2022-08-27T08:03:08.559Z,1438.
2022-08-27T08:04:07.785Z,1433.
2022-08-27T08:05:08.320Z,1440
2022-08-27T08:06:08.471Z,1480
2022-08-27T08:07:07.940Z,1520
2022-08-27T08:08:07.926Z,1546
2022-08-27T08:09:10.660Z,1549
2022-08-27T08:10:07.930Z,1558
2022-08-27T08:11:08.099Z,1573.
2022-08-27T08:12:07.618Z,1565.
2022-08-27T08:13:07.977Z,1568
2022-08-27T08:14:08.380Z,1582.
2022-08-27T08:15:08.163Z,1598
2022-08-27T08:16:08.286Z,1605
2022-08-27T08:17:08.859Z,1578
2022-08-27T08:18:08.307Z,1557
2022-08-27T08:19:08.018Z,1541
2022-08-27T08:20:30.881Z,1530.
2022-08-27T08:21:08.198Z,1534.
2022-08-27T08:22:08.452Z,1552
2022-08-27T08:23:09.758Z,1567.
2022-08-27T08:24:08.075Z,1570.
2022-08-27T08:25:08.412Z,1571
2022-08-27T08:26:08.243Z,1579.
2022-08-27T08:27:08.086Z,1565
2022-08-27T08:28:08.380Z,1546
2022-08-27T08:29:08.582Z,1539
2022-08-27T08:30:08.276Z,1556
2022-08-27T08:31:07.781Z,1586
2022-08-27T08:32:08.254Z,1596
2022-08-27T08:33:07.709Z,1613
2022-08-27T08:34:08.047Z,1620.
2022-08-27T08:35:08.165Z,1640
2022-08-27T08:36:07.944Z,1655
2022-08-27T08:37:08.213Z,1675
2022-08-27T08:38:08.259Z,1710
2022-08-27T08:39:07.948Z,1741
2022-08-27T08:40:08.121Z,1760
2022-08-27T08:41:07.749Z,1820
2022-08-27T08:42:07.958Z,1865
2022-08-27T08:43:08.846Z,1869.
2022-08-27T08:44:16.154Z,1820
2022-08-27T08:45:08.703Z,1782
2022-08-27T08:46:07.974Z,1773
2022-08-27T08:47:08.178Z,1740
2022-08-27T08:48:07.708Z,1700
2022-08-27T08:49:08.158Z,1659
2022-08-27T08:50:08.434Z,1629
2022-08-27T08:51:08.373Z,1596
2022-08-27T08:52:07.925Z,1630
2022-08-27T08:53:07.886Z,1690
2022-08-27T08:54:08.083Z,1740
2022-08-27T08:55:08.415Z,1765
2022-08-27T08:56:07.815Z,1720
2022-08-27T08:57:08.469Z,1700
2022-08-27T08:58:08.430Z,1850
2022-08-27T08:59:08.423Z,1890
2022-08-27T09:00:08.190Z,1929
2022-08-27T09:01:07.920Z,1912.
2022-08-27T09:02:12.767Z,1909
2022-08-27T09:03:08.062Z,1946
2022-08-27T09:04:08.711Z,1947
2022-08-27T09:05:08.163Z,1920
2022-08-27T09:06:08.537Z,1990
2022-08-27T09:07:07.847Z,2050
2022-08-27T09:08:31.932Z,2092
2022-08-27T09:09:07.484Z,2000
2022-08-27T09:10:08.178Z,1800
2022-08-27T09:11:07.853Z,1800
2022-08-27T09:12:07.881Z,2000
2022-08-27T09:13:08.140Z,2200
2022-08-27T09:14:11.508Z,2330
2022-08-27T09:15:09.307Z,2370
2022-08-27T09:16:08.113Z,2400
2022-08-27T09:17:11.457Z,2600
2022-08-27T09:18:08.463Z,2700
2022-08-27T09:19:07.926Z,2800
2022-08-27T09:20:07.687Z,3000
2022-08-27T09:21:09.027Z,3098
2022-08-27T09:22:08.193Z,3136
2022-08-27T09:23:07.923Z,3140
2022-08-27T09:24:08.357Z,3100
2022-08-27T09:25:07.906Z,2000
2022-08-27T09:26:08.103Z,2500
2022-08-27T09:27:08.225Z,2460
2022-08-27T09:28:07.957Z,2481
2022-08-27T09:29:07.631Z,2300
2022-08-27T09:30:08.211Z,2320
2022-08-27T09:31:07.936Z,2300
2022-08-27T09:32:07.807Z,2420
2022-08-27T09:33:08.068Z,2000
2022-08-27T09:34:08.297Z,2000
2022-08-27T09:35:07.652Z,2165
2022-08-27T09:36:08.112Z,2140
2022-08-27T09:37:08.144Z,2200
2022-08-27T09:38:08.525Z,2310
2022-08-27T09:39:08.280Z,2340
2022-08-27T09:40:13.639Z,2370
2022-08-27T09:41:08.008Z,2300
2022-08-27T09:42:08.157Z,2300
2022-08-27T09:43:08.473Z,2300
2022-08-27T09:44:07.861Z,2100
2022-08-27T09:45:09.071Z,2000
2022-08-27T09:46:08.139Z,2100
2022-08-27T09:47:07.918Z,2280
2022-08-27T09:48:08.379Z,2400
2022-08-27T09:49:08.024Z,2390
2022-08-27T09:50:07.911Z,2000
2022-08-27T09:51:08.251Z,2200
2022-08-27T09:52:07.727Z,2000
2022-08-27T09:53:08.271Z,1900
2022-08-27T09:54:07.869Z,1940
2022-08-27T09:55:08.268Z,2000
2022-08-27T09:56:07.840Z,2260
2022-08-27T09:57:07.734Z,2100
2022-08-27T09:58:08.166Z,2200
2022-08-27T09:59:07.609Z,2158
2022-08-27T10:00:08.996Z,2000
2022-08-27T10:01:08.145Z,2000
2022-08-27T10:02:12.223Z,1800
2022-08-27T10:03:07.751Z,1800
2022-08-27T10:04:08.283Z,1940
2022-08-27T10:05:07.705Z,1900
2022-08-27T10:06:08.419Z,2100
2022-08-27T10:07:08.183Z,2230
2022-08-27T10:08:08.205Z,2000
2022-08-27T10:09:08.219Z,2000
2022-08-27T10:10:07.786Z,2120
2022-08-27T10:11:08.562Z,2220
2022-08-27T10:12:08.266Z,2150
2022-08-27T10:13:10.191Z,2000
2022-08-27T10:14:08.467Z,2400
2022-08-27T10:15:08.074Z,2510
2022-08-27T10:16:07.810Z,2520
2022-08-27T10:17:07.549Z,2600
2022-08-27T10:18:07.703Z,2700
2022-08-27T10:19:07.553Z,2400
2022-08-27T10:20:08.182Z,2250
2022-08-27T10:21:08.064Z,2400
2022-08-27T10:22:08.223Z,2600
2022-08-27T10:23:08.466Z,2500
2022-08-27T10:24:08.108Z,2600
2022-08-27T10:25:08.508Z,3000
2022-08-27T10:26:08.106Z,3300
2022-08-27T10:27:08.207Z,3000
2022-08-27T10:28:08.350Z,2000
2022-08-27T10:29:08.115Z,2000
2022-08-27T10:30:07.969Z,2100
2022-08-27T10:31:07.991Z,2430
2022-08-27T10:32:08.638Z,2400
2022-08-27T10:33:08.250Z,2300
2022-08-27T10:34:08.029Z,2200
2022-08-27T10:35:08.049Z,2250
2022-08-27T10:36:08.054Z,2000
2022-08-27T10:37:07.994Z,2000
2022-08-27T10:38:08.224Z,2000
2022-08-27T10:39:08.098Z,1938
2022-08-27T10:40:08.688Z,1900
2022-08-27T10:41:08.027Z,1750
2022-08-27T10:42:08.224Z,1000
2022-08-27T10:43:07.523Z,2100
2022-08-27T10:44:07.912Z,2200
2022-08-27T10:45:08.282Z,2300
2022-08-27T10:46:07.659Z,2200
2022-08-27T10:47:07.669Z,2400
2022-08-27T10:48:07.863Z,2500
2022-08-27T10:49:07.853Z,2300
2022-08-27T10:50:07.902Z,2400
2022-08-27T10:51:08.107Z,2600
2022-08-27T10:52:08.616Z,2680
2022-08-27T10:53:08.035Z,2000
2022-08-27T10:54:08.262Z,3000
2022-08-27T10:55:08.582Z,2800
2022-08-27T10:56:08.456Z,2890
2022-08-27T10:57:28.585Z,2600
2022-08-27T10:58:08.287Z,2400
2022-08-27T10:59:07.920Z,2600
2022-08-27T11:00:08.664Z,2600
2022-08-27T11:01:07.875Z,2760
2022-08-27T11:02:08.435Z,2800
2022-08-27T11:03:13.843Z,2700
2022-08-27T11:04:07.954Z,2800
2022-08-27T11:05:13.234Z,3000
2022-08-27T11:06:07.883Z,3200
2022-08-27T11:07:08.235Z,3000
2022-08-27T11:08:07.731Z,3700
2022-08-27T11:09:08.053Z,3500
2022-08-27T11:10:08.475Z,3100
2022-08-27T11:11:51.460Z,3150
2022-08-27T11:12:14.307Z,3200
2022-08-27T11:13:16.093Z,3300
2022-08-27T11:14:08.100Z,3300
2022-08-27T11:15:12.267Z,3000
2022-08-27T11:16:07.733Z,3000
2022-08-27T11:17:08.734Z,3300
2022-08-27T11:18:08.050Z,3000
2022-08-27T11:19:07.838Z,3200
2022-08-27T11:20:08.148Z,2900
2022-08-27T11:21:07.895Z,2980
2022-08-27T11:22:08.024Z,2800
2022-08-27T11:23:08.225Z,3000
2022-08-27T11:24:07.945Z,2000
2022-08-27T11:25:08.220Z,2000
2022-08-27T11:26:08.243Z,3000
2022-08-27T11:27:07.727Z,3000
2022-08-27T11:28:08.385Z,2900
2022-08-27T11:29:07.721Z,2900
2022-08-27T11:30:08.092Z,2700
2022-08-27T11:31:07.843Z,2630
2022-08-27T11:32:08.337Z,2000
2022-08-27T11:33:13.766Z,2200
2022-08-27T11:34:08.337Z,2160
2022-08-27T11:35:07.806Z,2300
2022-08-27T11:36:08.483Z,2000
2022-08-27T11:37:26.819Z,2910
2022-08-27T11:38:08.227Z,3000
2022-08-27T11:39:08.457Z,3100
2022-08-27T11:40:08.645Z,3400
2022-08-27T11:41:08.415Z,3500
2022-08-27T11:42:07.939Z,3800
2022-08-27T11:43:08.143Z,4030
2022-08-27T11:44:08.140Z,3900
2022-08-27T11:45:08.615Z,4100
2022-08-27T11:46:08.351Z,4200
2022-08-27T11:47:07.716Z,4000
2022-08-27T11:48:08.401Z,3000
2022-08-27T11:49:07.969Z,3000
2022-08-27T11:50:08.237Z,3000
2022-08-27T11:51:07.791Z,3000
2022-08-27T11:52:08.239Z,4000
2022-08-27T11:53:07.945Z,4400
2022-08-27T11:54:08.087Z,4400
2022-08-27T11:55:08.291Z,3000
2022-08-27T11:56:08.188Z,3000
2022-08-27T11:57:08.601Z,3300
2022-08-27T11:58:08.251Z,3000
2022-08-27T11:59:08.179Z,3000
2022-08-27T12:00:09.054Z,3000
2022-08-27T12:01:08.364Z,3100
2022-08-27T12:02:07.772Z,3000
2022-08-27T12:03:08.310Z,3930
2022-08-27T12:04:07.874Z,3000
2022-08-27T12:05:08.475Z,3000
2022-08-27T12:06:07.987Z,3200
2022-08-27T12:07:08.268Z,3380
2022-08-27T12:08:08.750Z,3000
2022-08-27T12:09:08.323Z,4100
2022-08-27T12:10:07.971Z,4000
2022-08-27T12:11:08.274Z,4000
2022-08-27T12:12:08.130Z,4500
2022-08-27T12:13:08.426Z,4300
2022-08-27T12:14:08.597Z,4500
2022-08-27T12:15:08.245Z,4600
2022-08-27T12:16:08.296Z,4300
2022-08-27T12:17:08.043Z,4100
2022-08-27T12:18:08.370Z,4300
2022-08-27T12:19:08.090Z,4400
2022-08-27T12:20:08.610Z,4000
2022-08-27T12:21:08.434Z,5200
2022-08-27T12:22:08.122Z,5100
2022-08-27T12:23:07.466Z,4800
2022-08-27T12:24:07.909Z,4800
2022-08-27T12:25:08.257Z,4000
2022-08-27T12:26:07.710Z,4900
2022-08-27T12:27:08.167Z,4910
2022-08-27T12:28:08.238Z,4900
2022-08-27T12:29:07.933Z,4900
2022-08-27T12:30:08.378Z,4000
2022-08-27T12:31:08.196Z,4200
2022-08-27T12:32:07.664Z,4400
2022-08-27T12:33:07.935Z,4700
2022-08-27T12:34:07.939Z,5000
2022-08-27T12:35:08.511Z,4900
2022-08-27T12:36:08.252Z,4900
2022-08-27T12:37:08.597Z,4900
2022-08-27T12:38:08.154Z,4900
2022-08-27T12:39:08.567Z,4900
2022-08-27T12:40:08.116Z,4000
2022-08-27T12:41:07.709Z,4400
2022-08-27T12:42:08.225Z,4515
2022-08-27T12:43:08.160Z,4460
2022-08-27T12:44:07.877Z,4400
2022-08-27T12:45:08.218Z,4600
2022-08-27T12:46:07.838Z,4560
2022-08-27T12:47:08.426Z,4000
2022-08-27T12:48:07.998Z,5000
2022-08-27T12:49:12.858Z,5040
2022-08-27T12:50:08.414Z,5100
2022-08-27T12:51:08.020Z,5200
2022-08-27T12:52:08.143Z,5250
2022-08-27T12:53:08.081Z,5300
2022-08-27T12:54:08.445Z,5500
2022-08-27T12:55:07.685Z,5800
2022-08-27T12:56:07.959Z,5940
2022-08-27T12:57:08.082Z,5700
2022-08-27T12:58:09.032Z,5500
2022-08-27T12:59:07.641Z,5570
2022-08-27T13:00:08.738Z,5000
2022-08-27T13:01:07.881Z,5900
2022-08-27T13:02:08.061Z,5920
2022-08-27T13:03:07.600Z,5800
2022-08-27T13:04:07.921Z,5750
2022-08-27T13:05:10.019Z,5600
2022-08-27T13:06:07.861Z,5500
2022-08-27T13:07:08.361Z,5600
2022-08-27T13:08:08.364Z,5000
2022-08-27T13:09:07.889Z,6200
2022-08-27T13:10:08.467Z,6300
2022-08-27T13:11:08.132Z,6000
2022-08-27T13:12:08.439Z,7200
2022-08-27T13:13:07.803Z,7100
2022-08-27T13:14:08.206Z,6000
2022-08-27T13:15:08.626Z,5000
2022-08-27T13:16:08.307Z,5600
2022-08-27T13:17:07.944Z,5580
2022-08-27T13:18:08.246Z,5500
2022-08-27T13:19:08.201Z,5610
2022-08-27T13:20:08.602Z,5400
2022-08-27T13:21:08.017Z,5400
2022-08-27T13:22:07.895Z,5600
2022-08-27T13:23:08.129Z,5700
2022-08-27T13:24:07.647Z,5900
2022-08-27T13:25:08.032Z,6000
2022-08-27T13:26:08.132Z,6500
2022-08-27T13:27:07.985Z,6800
2022-08-27T13:28:08.506Z,6960
2022-08-27T13:29:08.126Z,7020
2022-08-27T13:30:07.796Z,6960
2022-08-27T13:31:07.752Z,6944
2022-08-27T13:32:07.840Z,6930
2022-08-27T13:33:07.991Z,6700
2022-08-27T13:34:08.337Z,6500
2022-08-27T13:35:07.839Z,6000
2022-08-27T13:36:08.101Z,5800